ホノルル の空港の天気 - METARとTAF

ホノルル国際空港 ( PHNL / HNL ) - アメリカ ハワイ州ホノルル
飛行場実況気象(Metar)
観測時間08/18 02:53 HST (08/18 12:53 UTC)
風向・風速北北西 3m/s
視程10km以上
天気現象
少しの雲 雲底高度 790m
気温24.4℃
湿度79%
気圧1014.8hPa
METARPHNL 181253Z 33006KT 10SM FEW026 24/21 A2997 RMK AO2 SLP148 T02440206
過去の天気等 Google飛行場航空写真 Wunderground天気予報

過去48時間のMETAR

飛行場予報(TAF)
発表時間: 8/18 01:20 HST (8/18 11:20 UTC)
予報対象時間: 18日2時 HST ~ 19日8時 HST
風向・風速東北東 4m/s
視程10km以上
少しの雲 雲底高度 760m
少しの雲 雲底高度 1220m
18日4時 HST から
風向・風速北北西 3m/s
視程10km以上
少しの雲 雲底高度 760m
少しの雲 雲底高度 1220m
18日10時 HST から
風向・風速東 6m/s 瞬間風速 9m/s
視程10km以上
少しの雲 雲底高度 760m
全天の4割程度の雲 雲底高度 1370m
18日19時 HST から
風向・風速東北東 5m/s
視程10km以上
少しの雲 雲底高度 760m
少しの雲 雲底高度 1370m
PHNL 181120Z 1812/1918 07008KT P6SM FEW025 FEW040
FM181400 34005KT P6SM FEW025 FEW040
FM182000 08012G18KT P6SM FEW025 SCT045
FM190500 07009KT P6SM FEW025 FEW045